createdAt,value
2018-07-11T06:04:05.664Z,24.92
2018-07-11T06:05:05.476Z,24.83
2018-07-11T06:06:05.432Z,24.83
2018-07-11T06:07:05.402Z,24.77
2018-07-11T06:08:05.379Z,24.80
2018-07-11T06:09:05.364Z,24.71
2018-07-11T06:10:05.383Z,24.78
2018-07-11T06:11:05.292Z,24.75
2018-07-11T06:12:05.281Z,24.75
2018-07-11T06:13:05.260Z,24.77
2018-07-11T06:14:05.255Z,24.75
2018-07-11T06:15:05.193Z,24.78
2018-07-11T06:16:05.288Z,24.77
2018-07-11T06:17:05.161Z,24.80
2018-07-11T06:18:05.164Z,24.77
2018-07-11T06:19:05.106Z,24.80
2018-07-11T06:20:05.106Z,24.75
2018-07-11T06:21:05.142Z,24.85
2018-07-11T06:22:05.039Z,24.85
2018-07-11T06:23:04.985Z,24.93
2018-07-11T06:24:04.977Z,24.89
2018-07-11T06:25:05.013Z,24.90
2018-07-11T06:26:05.016Z,24.77
2018-07-11T06:27:04.894Z,24.82
2018-07-11T06:28:04.920Z,24.78
2018-07-11T06:29:04.867Z,24.75
2018-07-11T06:30:04.815Z,24.77
2018-07-11T06:31:04.853Z,24.80
2018-07-11T06:32:04.823Z,24.77
2018-07-11T06:33:04.727Z,24.80
2018-07-11T06:34:04.698Z,24.77
2018-07-11T06:35:04.676Z,24.82
2018-07-11T06:36:04.712Z,24.75
2018-07-11T06:37:04.620Z,24.78
2018-07-11T06:38:04.622Z,24.87
2018-07-11T06:39:04.591Z,24.89
2018-07-11T06:40:04.550Z,24.93
2018-07-11T06:41:04.637Z,24.93
2018-07-11T06:42:04.507Z,24.93
2018-07-11T06:43:04.477Z,24.92
2018-07-11T06:44:04.464Z,24.90
2018-07-11T06:45:04.446Z,24.89
2018-07-11T06:46:04.405Z,24.87
2018-07-11T06:47:04.435Z,24.75
2018-07-11T06:48:04.341Z,24.80
2018-07-11T06:49:04.329Z,24.86
2018-07-11T06:50:04.310Z,24.86
2018-07-11T06:51:04.269Z,24.89
2018-07-11T06:52:04.399Z,24.89
2018-07-11T06:53:04.229Z,24.90
2018-07-11T06:54:04.190Z,24.90
2018-07-11T06:55:04.153Z,24.94
2018-07-11T06:56:04.201Z,24.86
2018-07-11T06:57:04.214Z,24.78
2018-07-11T06:58:04.083Z,24.80
2018-07-11T06:59:04.053Z,24.75
2018-07-11T07:00:04.029Z,24.82
2018-07-11T07:01:04.005Z,24.82
2018-07-11T07:02:04.075Z,24.77
2018-07-11T07:03:03.953Z,24.85
2018-07-11T07:04:03.925Z,24.83
2018-07-11T07:05:03.922Z,24.77
2018-07-11T07:06:03.872Z,24.80
2018-07-11T07:07:03.954Z,24.85
2018-07-11T07:08:03.823Z,24.82
2018-07-11T07:09:03.802Z,24.77
2018-07-11T07:10:03.789Z,24.90
2018-07-11T07:11:03.771Z,24.87
2018-07-11T07:12:03.817Z,24.92
2018-07-11T07:13:03.693Z,24.93
2018-07-11T07:14:03.658Z,24.93
2018-07-11T07:15:03.656Z,24.86
2018-07-11T07:16:03.620Z,24.80
2018-07-11T07:17:03.693Z,24.77
2018-07-11T07:18:03.561Z,24.78
2018-07-11T07:19:03.539Z,24.78
2018-07-11T07:20:03.519Z,24.78
2018-07-11T07:21:03.483Z,24.77
2018-07-11T07:22:03.451Z,24.78
2018-07-11T07:23:03.564Z,24.75
2018-07-11T07:24:03.419Z,24.75
2018-07-11T07:25:03.385Z,24.75
2018-07-11T07:26:03.356Z,24.70
2018-07-11T07:27:03.347Z,24.67
2018-07-11T07:28:03.302Z,24.66
2018-07-11T07:29:03.431Z,24.70
2018-07-11T07:30:03.243Z,24.71
2018-07-11T07:31:03.260Z,24.80
2018-07-11T07:32:03.227Z,24.74
2018-07-11T07:33:03.181Z,24.69
2018-07-11T07:34:03.258Z,24.71
2018-07-11T07:35:03.129Z,24.67
2018-07-11T07:36:03.083Z,24.71
2018-07-11T07:37:03.090Z,24.69
2018-07-11T07:38:03.040Z,24.67
2018-07-11T07:39:03.112Z,24.63
2018-07-11T07:40:02.990Z,24.63
2018-07-11T07:41:02.966Z,24.63
2018-07-11T07:42:02.944Z,24.69
2018-07-11T07:43:02.906Z,24.52
2018-07-11T07:44:02.935Z,24.51
2018-07-11T07:45:02.867Z,24.49
2018-07-11T07:46:02.849Z,24.49
2018-07-11T07:47:02.866Z,24.55
2018-07-11T07:48:02.787Z,24.48
2018-07-11T07:49:02.874Z,24.48
2018-07-11T07:50:02.725Z,24.46
2018-07-11T07:51:02.740Z,24.49
2018-07-11T07:52:02.694Z,24.44
2018-07-11T07:53:02.656Z,24.45
2018-07-11T07:54:02.690Z,24.39
2018-07-11T07:55:02.629Z,24.40
2018-07-11T07:56:02.576Z,24.39
2018-07-11T07:57:02.550Z,24.34
2018-07-11T07:58:02.515Z,24.37
2018-07-11T07:59:02.507Z,24.34
2018-07-11T08:00:02.526Z,24.34
2018-07-11T08:01:02.456Z,24.32
2018-07-11T08:02:02.421Z,24.29
2018-07-11T08:03:02.380Z,24.24
2018-07-11T08:04:02.365Z,24.21
2018-07-11T08:05:02.349Z,24.24
2018-07-11T08:06:02.429Z,24.22
2018-07-11T08:07:02.323Z,24.22
2018-07-11T08:08:02.263Z,24.19
2018-07-11T08:09:02.240Z,24.21
2018-07-11T08:10:02.204Z,24.26
2018-07-11T08:11:02.269Z,24.17
2018-07-11T08:12:02.166Z,24.15
2018-07-11T08:13:02.137Z,24.19
2018-07-11T08:14:02.130Z,24.22
2018-07-11T08:15:02.090Z,24.21
2018-07-11T08:16:02.160Z,24.26
2018-07-11T08:17:02.039Z,24.21
2018-07-11T08:18:01.995Z,24.26
2018-07-11T08:19:01.994Z,24.18
2018-07-11T08:20:01.961Z,24.26
2018-07-11T08:21:02.033Z,24.17
2018-07-11T08:22:01.887Z,24.24
2018-07-11T08:23:01.880Z,24.24
2018-07-11T08:24:01.858Z,24.12
2018-07-11T08:25:01.815Z,24.04
2018-07-11T08:26:01.904Z,24.17
2018-07-11T08:27:01.848Z,24.11
2018-07-11T08:28:01.747Z,24.14
2018-07-11T08:29:01.721Z,24.17
2018-07-11T08:30:01.696Z,24.11
2018-07-11T08:31:01.648Z,24.12
2018-07-11T08:32:01.738Z,24.11
2018-07-11T08:33:01.615Z,24.03
2018-07-11T08:34:01.643Z,24.08
2018-07-11T08:35:01.608Z,24.07
2018-07-11T08:36:01.521Z,24.09
2018-07-11T08:37:01.590Z,24.11
2018-07-11T08:38:01.458Z,24.07
2018-07-11T08:39:01.452Z,24.09
2018-07-11T08:40:01.404Z,24.07
2018-07-11T08:41:01.383Z,24.03
2018-07-11T08:42:01.391Z,24.08
2018-07-11T08:43:01.445Z,24.03
2018-07-11T08:44:01.319Z,24.07
2018-07-11T08:45:01.307Z,24.08
2018-07-11T08:46:01.289Z,24.02
2018-07-11T08:47:01.239Z,24.07
2018-07-11T08:48:01.386Z,23.96
2018-07-11T08:49:01.173Z,23.99
2018-07-11T08:50:01.152Z,23.92
2018-07-11T08:51:01.139Z,23.92
2018-07-11T08:52:01.102Z,23.99
2018-07-11T08:53:01.118Z,23.97
2018-07-11T08:54:01.043Z,24.03
2018-07-11T08:55:02.789Z,24.11
2018-07-11T08:56:02.899Z,24.04
2018-07-11T08:57:02.494Z,24.07
2018-07-11T08:58:03.699Z,24.07
2018-07-11T08:59:02.651Z,24.03
2018-07-11T09:00:00.885Z,23.99
2018-07-11T09:01:00.856Z,23.96
2018-07-11T09:02:00.867Z,24.00
2018-07-11T09:03:00.806Z,23.93
2018-07-11T09:04:00.991Z,23.92
2018-07-11T09:05:00.751Z,23.94
2018-07-11T09:06:00.732Z,23.97
2018-07-11T09:07:00.728Z,23.90
2018-07-11T09:08:00.677Z,23.92
2018-07-11T09:09:00.669Z,23.93
2018-07-11T09:10:00.722Z,23.94
2018-07-11T09:11:00.600Z,23.97
2018-07-11T09:12:00.599Z,23.92
2018-07-11T09:13:00.543Z,23.93
2018-07-11T09:14:00.533Z,23.92
2018-07-11T09:15:00.605Z,23.94
2018-07-11T09:16:00.483Z,23.94
2018-07-11T09:17:00.437Z,23.94
2018-07-11T09:18:00.496Z,23.89
2018-07-11T09:19:00.379Z,23.96
2018-07-11T09:20:00.358Z,23.96
2018-07-11T09:21:00.435Z,24.00
2018-07-11T09:22:00.321Z,24.09
2018-07-11T09:23:00.275Z,23.99
2018-07-11T09:24:00.320Z,23.99
2018-07-11T09:25:00.226Z,24.08
2018-07-11T09:26:00.314Z,24.08
2018-07-11T09:27:00.172Z,24.04
2018-07-11T09:28:00.160Z,24.08
2018-07-11T09:29:00.118Z,24.02
2018-07-11T09:30:00.098Z,24.00
2018-07-11T09:31:00.187Z,23.96
2018-07-11T09:32:00.057Z,23.96
2018-07-11T09:33:00.031Z,23.96
2018-07-11T09:34:00.014Z,23.96
2018-07-11T09:34:59.962Z,23.93
2018-07-11T09:36:00.009Z,23.93
2018-07-11T09:36:59.914Z,23.92
2018-07-11T09:37:59.905Z,23.92
2018-07-11T09:38:59.859Z,23.99
2018-07-11T09:39:59.841Z,23.90
2018-07-11T09:40:59.794Z,23.92
2018-07-11T09:41:59.837Z,23.90
2018-07-11T09:42:59.811Z,23.85
2018-07-11T09:43:59.805Z,23.87
2018-07-11T09:44:59.700Z,23.75
2018-07-11T09:45:59.672Z,23.84
2018-07-11T09:46:59.759Z,23.77
2018-07-11T09:47:59.610Z,23.85
2018-07-11T09:48:59.597Z,23.82
2018-07-11T09:49:59.565Z,23.85
2018-07-11T09:50:59.548Z,23.84
2018-07-11T09:51:59.607Z,23.82
2018-07-11T09:52:59.477Z,23.84
2018-07-11T09:53:59.455Z,23.75
2018-07-11T09:54:59.452Z,23.85
2018-07-11T09:55:59.415Z,23.77
2018-07-11T09:56:59.368Z,23.78
2018-07-11T09:57:59.421Z,23.75
2018-07-11T09:58:59.352Z,23.72
2018-07-11T09:59:59.290Z,23.74
2018-07-11T10:00:59.272Z,23.74
2018-07-11T10:01:59.263Z,23.72
2018-07-11T10:02:59.315Z,23.67
2018-07-11T10:03:59.185Z,23.62
2018-07-11T10:04:59.161Z,23.63
2018-07-11T10:05:59.129Z,23.67
2018-07-11T10:06:59.118Z,23.71
2018-07-11T10:07:59.156Z,23.70
2018-07-11T10:08:59.072Z,23.70
2018-07-11T10:09:59.044Z,23.66
2018-07-11T10:10:59.015Z,23.63
2018-07-11T10:11:59.048Z,23.64
2018-07-11T10:12:59.082Z,23.67
2018-07-11T10:13:58.918Z,23.66
2018-07-11T10:14:58.914Z,23.70
2018-07-11T10:15:58.873Z,23.55
2018-07-11T10:16:58.849Z,23.50
2018-07-11T10:17:58.812Z,23.45
2018-07-11T10:18:58.851Z,23.50
2018-07-11T10:19:58.772Z,23.53
2018-07-11T10:20:58.757Z,23.52
2018-07-11T10:21:58.715Z,23.52
2018-07-11T10:22:58.682Z,23.57
2018-07-11T10:23:58.756Z,23.57
2018-07-11T10:24:58.668Z,23.66
2018-07-11T10:25:58.612Z,23.63
2018-07-11T10:26:58.584Z,23.67
2018-07-11T10:27:58.570Z,23.62
2018-07-11T10:28:58.625Z,23.66
2018-07-11T10:29:58.503Z,23.57
2018-07-11T10:30:58.483Z,23.70
2018-07-11T10:31:58.436Z,23.60
2018-07-11T10:32:58.426Z,23.60
2018-07-11T10:33:58.386Z,23.55
2018-07-11T10:34:58.517Z,23.59
2018-07-11T10:35:58.338Z,23.63
2018-07-11T10:36:58.308Z,23.63
2018-07-11T10:37:58.307Z,23.66
2018-07-11T10:38:58.319Z,23.62
2018-07-11T10:39:58.237Z,23.66
2018-07-11T10:40:58.251Z,23.70
2018-07-11T10:41:58.211Z,23.62
2018-07-11T10:42:58.146Z,23.64
2018-07-11T10:43:58.130Z,23.77
2018-07-11T10:44:58.135Z,23.67
2018-07-11T10:45:58.137Z,23.64
2018-07-11T10:46:58.046Z,23.64
2018-07-11T10:47:58.018Z,23.67
2018-07-11T10:48:57.991Z,23.62
2018-07-11T10:49:57.968Z,23.55
2018-07-11T10:50:57.938Z,23.52
2018-07-11T10:51:57.952Z,23.55
2018-07-11T10:52:57.889Z,23.55
2018-07-11T10:53:57.909Z,23.53
2018-07-11T10:54:57.832Z,23.53
2018-07-11T10:55:57.812Z,23.60
2018-07-11T10:56:57.929Z,23.52
2018-07-11T10:57:57.804Z,23.63
2018-07-11T10:58:57.713Z,23.63
2018-07-11T10:59:57.739Z,23.67
2018-07-11T11:01:05.702Z,23.72
2018-07-11T11:01:57.735Z,23.67
2018-07-11T11:02:57.614Z,23.63
2018-07-11T11:03:57.594Z,23.70
2018-07-11T11:04:57.613Z,23.72
2018-07-11T11:05:57.592Z,23.74
2018-07-11T11:06:57.611Z,23.72
2018-07-11T11:07:57.575Z,23.72
2018-07-11T11:08:57.463Z,23.75
2018-07-11T11:09:57.432Z,23.72
2018-07-11T11:10:57.397Z,23.78
2018-07-11T11:11:57.383Z,23.74
2018-07-11T11:12:57.462Z,23.78
2018-07-11T11:13:57.333Z,23.78
2018-07-11T11:14:57.306Z,23.75
2018-07-11T11:15:57.269Z,23.70
2018-07-11T11:16:57.254Z,23.71
2018-07-11T11:17:57.331Z,23.63
2018-07-11T11:18:57.221Z,23.67
2018-07-11T11:19:57.161Z,23.67
2018-07-11T11:20:57.146Z,23.66
2018-07-11T11:21:57.121Z,23.67
2018-07-11T11:22:57.096Z,23.67
2018-07-11T11:23:57.175Z,23.63
2018-07-11T11:24:57.029Z,23.72
2018-07-11T11:25:57.004Z,23.67
2018-07-11T11:26:56.980Z,23.64
2018-07-11T11:27:56.947Z,23.62
2018-07-11T11:28:57.003Z,23.70
2018-07-11T11:29:56.990Z,23.63
2018-07-11T11:30:56.870Z,23.72
2018-07-11T11:31:56.867Z,23.72
2018-07-11T11:32:56.811Z,23.72
2018-07-11T11:33:56.794Z,23.75
2018-07-11T11:34:56.862Z,23.75
2018-07-11T11:35:56.734Z,23.79
2018-07-11T11:36:56.730Z,23.78
2018-07-11T11:37:56.690Z,23.77
2018-07-11T11:38:56.652Z,23.81
2018-07-11T11:39:56.674Z,23.85
2018-07-11T11:40:56.614Z,23.84
2018-07-11T11:41:56.882Z,23.82
2018-07-11T11:42:56.664Z,23.89
2018-07-11T11:43:56.535Z,23.87
2018-07-11T11:44:56.535Z,23.92
2018-07-11T11:45:56.473Z,23.94
2018-07-11T11:46:56.436Z,24.00
2018-07-11T11:47:56.583Z,24.04
2018-07-11T11:48:56.748Z,24.03
2018-07-11T11:49:56.374Z,24.08
2018-07-11T11:50:56.512Z,24.12
2018-07-11T11:51:56.297Z,24.07
2018-07-11T11:52:56.284Z,24.18
2018-07-11T11:53:56.267Z,24.27
2018-07-11T11:54:56.241Z,24.33
2018-07-11T11:55:56.285Z,24.34
2018-07-11T11:56:56.177Z,24.36
2018-07-11T11:57:56.145Z,24.37
2018-07-11T11:58:56.128Z,24.52
2018-07-11T11:59:56.161Z,24.52
2018-07-11T12:00:56.311Z,24.51
2018-07-11T12:01:56.162Z,24.55
2018-07-11T12:02:56.017Z,24.59
2018-07-11T12:03:55.999Z,24.67
2018-07-11T12:04:55.975Z,24.64
2018-07-11T12:05:56.000Z,24.71
2018-07-11T12:06:56.010Z,24.74
2018-07-11T12:07:55.886Z,24.77
2018-07-11T12:08:55.850Z,24.90
2018-07-11T12:09:55.916Z,24.87
2018-07-11T12:10:55.798Z,24.89
2018-07-11T12:11:55.927Z,24.93
2018-07-11T12:12:55.763Z,24.93
2018-07-11T12:13:55.723Z,24.94
2018-07-11T12:14:55.738Z,25.07
2018-07-11T12:15:55.662Z,25.05
2018-07-11T12:16:55.743Z,25.11
2018-07-11T12:17:55.640Z,25.07
2018-07-11T12:18:55.582Z,25.22
2018-07-11T12:19:55.592Z,25.27
2018-07-11T12:20:55.536Z,25.29
2018-07-11T12:21:55.630Z,25.67
2018-07-11T12:22:55.494Z,26.30
2018-07-11T12:23:55.480Z,27.08
2018-07-11T12:24:55.452Z,27.61
2018-07-11T12:25:55.428Z,27.75
2018-07-11T12:26:55.398Z,27.51
2018-07-11T12:27:55.472Z,27.36
2018-07-11T12:28:55.353Z,27.37
2018-07-11T12:29:55.312Z,27.31
2018-07-11T12:30:55.492Z,27.16
2018-07-11T12:31:55.246Z,27.06
2018-07-11T12:32:55.292Z,26.82
2018-07-11T12:33:55.266Z,26.75
2018-07-11T12:34:55.220Z,26.67
2018-07-11T12:35:55.155Z,26.68
2018-07-11T12:36:55.117Z,26.71
2018-07-11T12:37:55.098Z,26.67
2018-07-11T12:38:55.191Z,26.89
2018-07-11T12:39:55.046Z,27.01
2018-07-11T12:40:55.019Z,27.28
2018-07-11T12:41:54.988Z,27.69
2018-07-11T12:42:54.990Z,28.08
2018-07-11T12:43:55.091Z,27.83
2018-07-11T12:44:54.935Z,27.68
2018-07-11T12:45:54.895Z,27.37
2018-07-11T12:46:54.880Z,27.30
2018-07-11T12:47:54.836Z,27.26
2018-07-11T12:48:55.029Z,27.08
2018-07-11T12:49:54.805Z,26.96
2018-07-11T12:50:54.784Z,26.96
2018-07-11T12:51:54.759Z,26.93
2018-07-11T12:52:54.737Z,26.82
2018-07-11T12:53:54.780Z,26.90
2018-07-11T12:54:54.662Z,26.74
2018-07-11T12:55:54.663Z,26.81
2018-07-11T12:56:54.621Z,26.78
2018-07-11T12:57:54.636Z,26.82
2018-07-11T12:58:54.669Z,26.75
2018-07-11T12:59:54.544Z,26.74
2018-07-11T13:00:54.546Z,26.71
2018-07-11T13:01:54.497Z,26.72
2018-07-11T13:02:54.461Z,26.63
2018-07-11T13:03:54.463Z,26.53
2018-07-11T13:04:54.487Z,26.47
2018-07-11T13:05:54.384Z,26.52
2018-07-11T13:06:54.360Z,26.57
2018-07-11T13:07:54.354Z,26.50
2018-07-11T13:08:54.324Z,26.56
2018-07-11T13:09:54.276Z,26.57
2018-07-11T13:10:54.372Z,26.61
2018-07-11T13:11:54.225Z,26.69
2018-07-11T13:12:54.245Z,26.56
2018-07-11T13:13:54.345Z,26.54
2018-07-11T13:14:54.164Z,26.61
2018-07-11T13:15:54.368Z,26.63
2018-07-11T13:16:54.305Z,26.56
2018-07-11T13:17:54.092Z,26.56
2018-07-11T13:18:54.070Z,26.68
2018-07-11T13:19:54.050Z,26.60
2018-07-11T13:20:54.116Z,26.61
2018-07-11T13:21:53.979Z,26.56
2018-07-11T13:22:53.973Z,26.56
2018-07-11T13:23:53.952Z,26.67
2018-07-11T13:24:53.955Z,26.64
2018-07-11T13:25:54.051Z,26.59
2018-07-11T13:26:53.876Z,26.57
2018-07-11T13:27:53.870Z,26.53
2018-07-11T13:28:54.226Z,26.53
2018-07-11T13:29:53.939Z,26.56
2018-07-11T13:30:54.221Z,26.53
2018-07-11T13:31:53.722Z,26.50
2018-07-11T13:32:53.803Z,26.54
2018-07-11T13:33:53.679Z,26.61
2018-07-11T13:34:53.961Z,26.64
2018-07-11T13:35:53.751Z,26.54
2018-07-11T13:36:53.621Z,26.67
2018-07-11T13:37:53.687Z,26.67
2018-07-11T13:38:53.563Z,26.69
2018-07-11T13:39:53.544Z,26.78
2018-07-11T13:40:53.624Z,26.86
2018-07-11T13:41:53.509Z,26.81
2018-07-11T13:42:53.454Z,26.91
2018-07-11T13:43:53.463Z,26.86
2018-07-11T13:44:53.660Z,26.94
2018-07-11T13:45:53.394Z,27.01
2018-07-11T13:46:53.446Z,26.94
2018-07-11T13:47:53.314Z,27.08
2018-07-11T13:48:53.314Z,27.19
2018-07-11T13:49:53.289Z,27.19
2018-07-11T13:50:53.277Z,27.33
2018-07-11T13:51:54.232Z,27.30
2018-07-11T13:52:53.341Z,27.27
2018-07-11T13:53:53.191Z,27.28
2018-07-11T13:54:53.198Z,27.23
2018-07-11T13:55:53.133Z,27.36
2018-07-11T13:56:53.121Z,27.41
2018-07-11T13:57:53.132Z,27.41
2018-07-11T13:58:53.099Z,27.41
2018-07-11T13:59:53.027Z,27.38
2018-07-11T14:00:53.095Z,27.45
2018-07-11T14:01:52.978Z,27.49
2018-07-11T14:02:53.075Z,27.59
2018-07-11T14:03:52.943Z,27.55
2018-07-11T14:04:52.923Z,27.53
2018-07-11T14:05:52.908Z,27.61
2018-07-11T14:06:52.849Z,27.64
2018-07-11T14:07:52.946Z,27.72
2018-07-11T14:08:52.817Z,27.76
2018-07-11T14:09:52.808Z,27.86
2018-07-11T14:10:52.758Z,27.94
2018-07-11T14:11:52.753Z,28.05
2018-07-11T14:12:52.816Z,28.06
2018-07-11T14:13:52.697Z,28.05
2018-07-11T14:14:52.683Z,28.06
2018-07-11T14:15:52.725Z,28.11
2018-07-11T14:16:52.601Z,28.27
2018-07-11T14:17:52.656Z,28.23
2018-07-11T14:18:52.566Z,28.28
2018-07-11T14:19:52.538Z,28.45
2018-07-11T14:20:52.534Z,28.57
2018-07-11T14:21:52.549Z,28.76
2018-07-11T14:22:53.061Z,28.95
2018-07-11T14:23:52.974Z,29.13
2018-07-11T14:24:52.470Z,29.35
2018-07-11T14:25:52.436Z,29.36
2018-07-11T14:26:52.359Z,29.39
2018-07-11T14:27:52.368Z,29.33
2018-07-11T14:28:52.304Z,29.52
2018-07-11T14:29:52.454Z,29.60
2018-07-11T14:30:52.422Z,29.50
2018-07-11T14:31:52.274Z,29.36
2018-07-11T14:32:52.231Z,29.45
2018-07-11T14:33:52.228Z,29.38
2018-07-11T14:34:52.375Z,29.51
2018-07-11T14:35:52.217Z,29.63
2018-07-11T14:36:52.650Z,29.60
2018-07-11T14:37:52.138Z,29.69
2018-07-11T14:38:52.143Z,29.61
2018-07-11T14:39:52.397Z,29.66
2018-07-11T14:40:52.076Z,29.67
2018-07-11T14:41:52.096Z,29.81
2018-07-11T14:42:51.998Z,29.51
2018-07-11T14:43:52.035Z,29.39
2018-07-11T14:44:52.315Z,29.32
2018-07-11T14:45:51.971Z,29.13
2018-07-11T14:46:52.015Z,29.10
2018-07-11T14:47:51.864Z,29.08
2018-07-11T14:48:51.848Z,29.01
2018-07-11T14:49:52.464Z,28.80
2018-07-11T14:50:51.825Z,28.91
2018-07-11T14:51:51.759Z,28.78
2018-07-11T14:52:51.795Z,28.83
2018-07-11T14:53:51.708Z,28.85
2018-07-11T14:54:52.221Z,29.05
2018-07-11T14:55:51.869Z,29.43
2018-07-11T14:56:51.744Z,29.65
2018-07-11T14:57:52.040Z,30.14
2018-07-11T14:58:51.799Z,31.08
2018-07-11T14:59:51.715Z,31.97
2018-07-11T15:00:51.901Z,32.37
2018-07-11T15:01:51.659Z,32.74
2018-07-11T15:02:51.699Z,32.20
2018-07-11T15:03:51.640Z,32.03
2018-07-11T15:04:51.783Z,32.61
2018-07-11T15:05:51.582Z,32.84
2018-07-11T15:06:51.799Z,33.29
2018-07-11T15:07:51.382Z,33.90
2018-07-11T15:08:51.521Z,33.13
2018-07-11T15:09:51.344Z,32.91
2018-07-11T15:10:51.340Z,32.99
2018-07-11T15:11:51.310Z,33.13
2018-07-11T15:12:51.469Z,33.21
2018-07-11T15:13:51.331Z,32.75
2018-07-11T15:14:51.245Z,32.45
2018-07-11T15:15:51.221Z,31.82
2018-07-11T15:16:51.241Z,31.34
2018-07-11T15:17:51.321Z,31.12
2018-07-11T15:18:51.134Z,30.91
2018-07-11T15:19:51.131Z,30.42
2018-07-11T15:20:51.104Z,30.35
2018-07-11T15:21:51.064Z,30.21
2018-07-11T15:22:51.208Z,30.07
2018-07-11T15:23:51.084Z,30.03
2018-07-11T15:24:51.019Z,30.09
2018-07-11T15:25:50.982Z,30.00
2018-07-11T15:26:50.957Z,29.94
2018-07-11T15:27:51.050Z,29.82
2018-07-11T15:28:50.934Z,29.88
2018-07-11T15:29:50.906Z,29.85
2018-07-11T15:30:50.895Z,30.02
2018-07-11T15:31:50.861Z,29.94
2018-07-11T15:32:50.891Z,29.89
2018-07-11T15:33:50.817Z,29.85
2018-07-11T15:34:50.810Z,29.81
2018-07-11T15:35:50.766Z,30.09
2018-07-11T15:36:50.730Z,30.44
2018-07-11T15:37:50.781Z,30.67
2018-07-11T15:38:50.790Z,30.77
2018-07-11T15:39:51.202Z,30.66
2018-07-11T15:40:50.646Z,30.63
2018-07-11T15:41:50.645Z,30.57
2018-07-11T15:42:50.610Z,30.79
2018-07-11T15:43:50.598Z,31.03
2018-07-11T15:44:50.672Z,31.30
2018-07-11T15:45:50.531Z,31.45
2018-07-11T15:46:50.518Z,31.68
2018-07-11T15:47:50.510Z,31.62
2018-07-11T15:48:50.461Z,31.58
2018-07-11T15:49:50.493Z,31.53
2018-07-11T15:50:50.652Z,31.68
2018-07-11T15:51:50.430Z,31.63
2018-07-11T15:52:50.491Z,31.72
2018-07-11T15:53:50.386Z,31.43
2018-07-11T15:54:50.343Z,31.53
2018-07-11T15:55:50.347Z,31.47
2018-07-11T15:56:50.381Z,31.44
2018-07-11T15:57:50.296Z,31.37
2018-07-11T15:58:50.320Z,31.22
2018-07-11T15:59:50.348Z,31.60
2018-07-11T16:00:50.209Z,31.59
2018-07-11T16:01:50.302Z,32.03
2018-07-11T16:02:50.162Z,32.10
2018-07-11T16:03:50.144Z,32.17
2018-07-11T16:04:50.197Z,32.31
2018-07-11T16:05:50.175Z,32.87
2018-07-11T16:06:50.233Z,32.62
2018-07-11T16:07:50.089Z,33.02
2018-07-11T16:08:50.097Z,33.03
2018-07-11T16:09:50.024Z,33.18
2018-07-11T16:10:50.027Z,33.03
2018-07-11T16:11:50.034Z,32.46
2018-07-11T16:12:50.033Z,32.16
2018-07-11T16:13:49.918Z,31.67
2018-07-11T16:14:49.888Z,31.63
2018-07-11T16:15:49.905Z,31.67
2018-07-11T16:16:49.965Z,32.37
2018-07-11T16:17:49.883Z,33.06
2018-07-11T16:18:49.800Z,33.85
2018-07-11T16:19:49.804Z,34.19
2018-07-11T16:20:49.818Z,33.59
2018-07-11T16:21:49.816Z,33.37
2018-07-11T16:22:49.829Z,33.56
2018-07-11T16:23:49.708Z,33.87
2018-07-11T16:24:49.671Z,34.26
2018-07-11T16:25:49.701Z,34.54
2018-07-11T16:26:49.667Z,34.90
2018-07-11T16:27:49.717Z,35.02
2018-07-11T16:28:49.608Z,35.23
2018-07-11T16:29:49.762Z,35.11
2018-07-11T16:30:49.590Z,34.63
2018-07-11T16:31:49.576Z,34.18
2018-07-11T16:32:49.622Z,34.17
2018-07-11T16:33:49.498Z,34.29
2018-07-11T16:34:49.509Z,33.75
2018-07-11T16:35:49.443Z,33.68
2018-07-11T16:36:49.440Z,33.55
2018-07-11T16:37:49.470Z,33.26
2018-07-11T16:38:49.497Z,33.36
2018-07-11T16:39:49.365Z,32.59
2018-07-11T16:40:49.350Z,32.32
2018-07-11T16:41:49.332Z,31.80
2018-07-11T16:42:49.328Z,31.82
2018-07-11T16:43:49.291Z,32.01
2018-07-11T16:44:49.356Z,31.90
2018-07-11T16:45:49.344Z,31.90
2018-07-11T16:46:49.292Z,32.27
2018-07-11T16:47:49.226Z,32.20
2018-07-11T16:48:49.191Z,32.03
2018-07-11T16:49:49.213Z,32.30
2018-07-11T16:50:49.146Z,32.46
2018-07-11T16:51:49.108Z,32.20
2018-07-11T16:52:49.105Z,32.15
2018-07-11T16:53:49.089Z,32.32
2018-07-11T16:54:49.150Z,32.62
2018-07-11T16:55:49.050Z,32.80
2018-07-11T16:56:49.030Z,33.11
2018-07-11T16:57:48.990Z,32.91
2018-07-11T16:58:48.968Z,32.90
2018-07-11T16:59:49.070Z,32.83
2018-07-11T17:00:48.946Z,32.72
2018-07-11T17:01:48.930Z,32.56
2018-07-11T17:02:48.909Z,32.62
2018-07-11T17:03:48.889Z,32.53
2018-07-11T17:04:49.009Z,32.56
2018-07-11T17:05:48.927Z,32.31
2018-07-11T17:06:48.823Z,32.28
2018-07-11T17:07:49.178Z,32.45
2018-07-11T17:08:48.790Z,32.45
2018-07-11T17:09:48.747Z,32.34
2018-07-11T17:10:48.838Z,32.46
2018-07-11T17:11:48.707Z,32.61
2018-07-11T17:12:48.683Z,33.01
2018-07-11T17:13:48.668Z,33.01
2018-07-11T17:14:48.667Z,33.20
2018-07-11T17:15:48.742Z,32.83
2018-07-11T17:16:48.608Z,32.75
2018-07-11T17:17:48.571Z,32.50
2018-07-11T17:18:48.641Z,32.68
2018-07-11T17:19:48.531Z,32.28
2018-07-11T17:20:48.629Z,32.01
2018-07-11T17:21:48.505Z,31.68
2018-07-11T17:22:48.595Z,31.78
2018-07-11T17:23:48.443Z,32.00
2018-07-11T17:24:48.435Z,32.05
2018-07-11T17:25:48.415Z,32.30
2018-07-11T17:26:48.494Z,32.24
2018-07-11T17:27:48.376Z,32.15
2018-07-11T17:28:48.354Z,31.80
2018-07-11T17:29:48.375Z,31.77
2018-07-11T17:30:48.316Z,31.41
2018-07-11T17:31:48.293Z,31.34
2018-07-11T17:32:48.464Z,31.63
2018-07-11T17:33:48.252Z,32.12
2018-07-11T17:34:48.272Z,32.59
2018-07-11T17:35:48.252Z,32.83
2018-07-11T17:36:48.201Z,32.59
2018-07-11T17:37:48.174Z,32.74
2018-07-11T17:38:48.251Z,32.81
2018-07-11T17:39:48.116Z,32.72
2018-07-11T17:40:48.108Z,32.96
2018-07-11T17:41:48.111Z,32.91
2018-07-11T17:42:48.100Z,33.23
2018-07-11T17:43:48.146Z,33.08
2018-07-11T17:44:48.010Z,32.80
2018-07-11T17:45:48.009Z,32.39
2018-07-11T17:46:47.970Z,32.19
2018-07-11T17:47:47.977Z,31.97
2018-07-11T17:48:48.013Z,32.19
2018-07-11T17:49:48.065Z,32.13
2018-07-11T17:50:47.906Z,32.42
2018-07-11T17:51:47.919Z,32.59
2018-07-11T17:52:47.897Z,32.57
2018-07-11T17:53:47.837Z,33.03
2018-07-11T17:54:47.924Z,32.84
2018-07-11T17:55:47.791Z,33.12
2018-07-11T17:56:47.809Z,33.12
2018-07-11T17:57:47.755Z,32.84
2018-07-11T17:58:47.738Z,32.80
2018-07-11T17:59:47.877Z,32.80
2018-07-11T18:00:47.705Z,32.72
2018-07-11T18:01:47.694Z,32.53
2018-07-11T18:02:47.652Z,32.35
2018-07-11T18:03:47.680Z,32.42
2018-07-11T18:04:47.720Z,32.43
2018-07-11T18:05:47.628Z,32.46
2018-07-11T18:06:47.568Z,32.57
2018-07-11T18:07:47.580Z,32.80
2018-07-11T18:08:47.531Z,32.79
2018-07-11T18:09:47.648Z,32.64
2018-07-11T18:10:47.512Z,32.62
2018-07-11T18:11:47.478Z,32.69
2018-07-11T18:12:47.442Z,32.42
2018-07-11T18:13:47.427Z,32.46
2018-07-11T18:14:47.386Z,32.03
2018-07-11T18:15:47.986Z,31.94
2018-07-11T18:16:47.365Z,31.78
2018-07-11T18:17:47.453Z,31.45
2018-07-11T18:18:47.329Z,31.26
2018-07-11T18:19:47.371Z,31.53
2018-07-11T18:20:47.275Z,31.72
2018-07-11T18:21:47.358Z,31.70
2018-07-11T18:22:47.234Z,31.71
2018-07-11T18:23:47.205Z,31.77
2018-07-11T18:24:47.195Z,31.97
2018-07-11T18:25:47.170Z,31.77
2018-07-11T18:26:47.252Z,31.82
2018-07-11T18:27:47.133Z,31.75
2018-07-11T18:28:47.100Z,31.50
2018-07-11T18:29:47.102Z,31.31
2018-07-11T18:30:47.069Z,31.47
2018-07-11T18:31:47.040Z,31.31
2018-07-11T18:32:47.133Z,31.97
2018-07-11T18:33:46.999Z,32.28
2018-07-11T18:34:47.048Z,32.19
2018-07-11T18:35:46.958Z,32.52
2018-07-11T18:36:46.957Z,32.61
2018-07-11T18:37:47.034Z,32.80
2018-07-11T18:38:46.898Z,32.80
2018-07-11T18:39:46.891Z,32.99
2018-07-11T18:40:46.882Z,33.01
2018-07-11T18:41:46.837Z,32.86
2018-07-11T18:42:46.926Z,32.81
2018-07-11T18:43:46.817Z,33.01
2018-07-11T18:44:46.789Z,33.11
2018-07-11T18:45:46.869Z,32.96
2018-07-11T18:46:46.743Z,32.69
2018-07-11T18:47:46.826Z,32.50
2018-07-11T18:48:46.695Z,32.81
2018-07-11T18:49:46.687Z,32.83
2018-07-11T18:52:46.721Z,32.83
2018-07-11T18:53:46.596Z,32.76
2018-07-11T18:54:46.575Z,32.86
2018-07-11T18:55:46.542Z,33.06
2018-07-11T18:56:46.514Z,33.09
2018-07-11T18:57:46.666Z,33.05